Cowen, West Virginia
Current Conditions -  °F | °C
As of 9:15 AM on Saturday 22 Nov 2014 (Local Time) from KLWB Reporting Station
Clear Clear  
Wind Chill: -4°   Ceiling: Unl
Heat Index: -4°   Visibility: 10mi
Dew Point: -9°   Wind: 3mph
Humidity: 68%   Direction: 20°NNE
Pressure: 30.43"   Gusts: NA
Location:  38.41°N, 80.56°W
Report Text: KLWB 221415Z AUTO 02003KT 10SM CLR M04/M09 A3043 RMK AO2 T10401091
Loading
Personal Weather Stations






























Interactive Weather Map New forecast layout! Learn more

10-Day Weather Forecast

Advertisements
Track Severe Weather on mobile